sensor_id;sensor_type;location;lat;lon;timestamp;temperature;humidity
24560;DHT22;12727;49.934;8.656;2022-07-17T00:00:48;14.30;76.40
24560;DHT22;12727;49.934;8.656;2022-07-17T00:03:15;14.40;76.00
24560;DHT22;12727;49.934;8.656;2022-07-17T00:05:42;14.30;75.00
24560;DHT22;12727;49.934;8.656;2022-07-17T00:08:09;14.20;75.00
24560;DHT22;12727;49.934;8.656;2022-07-17T00:10:37;14.10;75.90
24560;DHT22;12727;49.934;8.656;2022-07-17T00:13:03;14.00;76.00
24560;DHT22;12727;49.934;8.656;2022-07-17T00:15:29;14.00;76.50
24560;DHT22;12727;49.934;8.656;2022-07-17T00:17:55;14.00;75.90
24560;DHT22;12727;49.934;8.656;2022-07-17T00:20:21;14.10;77.40
24560;DHT22;12727;49.934;8.656;2022-07-17T00:22:46;14.20;77.20
24560;DHT22;12727;49.934;8.656;2022-07-17T00:25:13;14.40;76.90
24560;DHT22;12727;49.934;8.656;2022-07-17T00:27:38;14.40;75.80
24560;DHT22;12727;49.934;8.656;2022-07-17T00:30:05;14.30;76.90
24560;DHT22;12727;49.934;8.656;2022-07-17T00:32:31;14.30;77.00
24560;DHT22;12727;49.934;8.656;2022-07-17T00:34:56;14.50;77.30
24560;DHT22;12727;49.934;8.656;2022-07-17T00:37:22;14.50;77.30
24560;DHT22;12727;49.934;8.656;2022-07-17T00:39:48;14.50;77.00
24560;DHT22;12727;49.934;8.656;2022-07-17T00:42:15;14.30;77.60
24560;DHT22;12727;49.934;8.656;2022-07-17T00:44:42;14.20;77.80
24560;DHT22;12727;49.934;8.656;2022-07-17T00:47:19;14.10;77.90
24560;DHT22;12727;49.934;8.656;2022-07-17T00:49:46;14.20;77.90
24560;DHT22;12727;49.934;8.656;2022-07-17T00:52:12;14.30;78.30
24560;DHT22;12727;49.934;8.656;2022-07-17T00:54:39;14.00;77.90
24560;DHT22;12727;49.934;8.656;2022-07-17T00:57:10;13.80;77.80
24560;DHT22;12727;49.934;8.656;2022-07-17T00:59:39;13.50;78.10
24560;DHT22;12727;49.934;8.656;2022-07-17T01:02:12;13.50;80.60
24560;DHT22;12727;49.934;8.656;2022-07-17T01:04:39;13.60;79.40
24560;DHT22;12727;49.934;8.656;2022-07-17T01:07:06;13.80;79.60
24560;DHT22;12727;49.934;8.656;2022-07-17T01:09:32;13.90;79.30
24560;DHT22;12727;49.934;8.656;2022-07-17T01:11:58;13.60;77.70
24560;DHT22;12727;49.934;8.656;2022-07-17T01:14:25;13.30;78.90
24560;DHT22;12727;49.934;8.656;2022-07-17T01:16:52;13.10;80.00
24560;DHT22;12727;49.934;8.656;2022-07-17T01:19:19;13.10;80.90
24560;DHT22;12727;49.934;8.656;2022-07-17T01:21:47;13.30;80.30
24560;DHT22;12727;49.934;8.656;2022-07-17T01:24:13;13.40;81.30
24560;DHT22;12727;49.934;8.656;2022-07-17T01:26:52;13.70;80.80
24560;DHT22;12727;49.934;8.656;2022-07-17T01:29:17;13.90;80.00
24560;DHT22;12727;49.934;8.656;2022-07-17T01:31:43;13.90;79.80
24560;DHT22;12727;49.934;8.656;2022-07-17T01:34:10;13.90;79.80
24560;DHT22;12727;49.934;8.656;2022-07-17T01:36:38;13.90;79.70
24560;DHT22;12727;49.934;8.656;2022-07-17T01:39:04;13.80;79.40
24560;DHT22;12727;49.934;8.656;2022-07-17T01:41:30;13.50;79.20
24560;DHT22;12727;49.934;8.656;2022-07-17T01:43:56;13.40;79.70
24560;DHT22;12727;49.934;8.656;2022-07-17T01:46:22;13.30;80.60
24560;DHT22;12727;49.934;8.656;2022-07-17T01:48:47;13.40;81.30
24560;DHT22;12727;49.934;8.656;2022-07-17T01:51:13;13.30;80.20
24560;DHT22;12727;49.934;8.656;2022-07-17T01:53:39;13.10;80.10
24560;DHT22;12727;49.934;8.656;2022-07-17T01:56:04;13.00;80.90
24560;DHT22;12727;49.934;8.656;2022-07-17T01:58:30;13.00;81.00
24560;DHT22;12727;49.934;8.656;2022-07-17T02:00:56;13.00;80.90
24560;DHT22;12727;49.934;8.656;2022-07-17T02:03:21;12.80;80.80
24560;DHT22;12727;49.934;8.656;2022-07-17T02:05:47;13.00;83.60
24560;DHT22;12727;49.934;8.656;2022-07-17T02:08:13;13.20;82.80
24560;DHT22;12727;49.934;8.656;2022-07-17T02:10:38;13.20;82.70
24560;DHT22;12727;49.934;8.656;2022-07-17T02:13:04;13.10;82.80
24560;DHT22;12727;49.934;8.656;2022-07-17T02:15:30;13.00;83.10
24560;DHT22;12727;49.934;8.656;2022-07-17T02:17:56;12.90;83.10
24560;DHT22;12727;49.934;8.656;2022-07-17T02:20:22;12.80;83.70
24560;DHT22;12727;49.934;8.656;2022-07-17T02:22:47;12.70;84.00
24560;DHT22;12727;49.934;8.656;2022-07-17T02:25:14;12.80;84.40
24560;DHT22;12727;49.934;8.656;2022-07-17T02:27:40;12.60;83.10
24560;DHT22;12727;49.934;8.656;2022-07-17T02:30:11;12.50;83.70
24560;DHT22;12727;49.934;8.656;2022-07-17T02:32:37;12.60;84.60
24560;DHT22;12727;49.934;8.656;2022-07-17T02:35:04;12.70;84.20
24560;DHT22;12727;49.934;8.656;2022-07-17T02:37:30;12.60;83.60
24560;DHT22;12727;49.934;8.656;2022-07-17T02:39:56;12.50;83.80
24560;DHT22;12727;49.934;8.656;2022-07-17T02:42:23;12.60;84.00
24560;DHT22;12727;49.934;8.656;2022-07-17T02:44:49;12.70;83.40
24560;DHT22;12727;49.934;8.656;2022-07-17T02:47:28;12.70;83.00
24560;DHT22;12727;49.934;8.656;2022-07-17T02:49:54;12.80;83.40
24560;DHT22;12727;49.934;8.656;2022-07-17T02:52:20;12.70;83.90
24560;DHT22;12727;49.934;8.656;2022-07-17T02:54:46;12.80;83.80
24560;DHT22;12727;49.934;8.656;2022-07-17T02:57:12;12.80;83.00
24560;DHT22;12727;49.934;8.656;2022-07-17T02:59:38;12.60;83.90
24560;DHT22;12727;49.934;8.656;2022-07-17T03:02:04;12.70;83.90
24560;DHT22;12727;49.934;8.656;2022-07-17T03:04:30;12.60;83.30
24560;DHT22;12727;49.934;8.656;2022-07-17T03:06:56;12.70;83.70
24560;DHT22;12727;49.934;8.656;2022-07-17T03:09:21;12.70;83.70
24560;DHT22;12727;49.934;8.656;2022-07-17T03:11:47;12.70;82.90
24560;DHT22;12727;49.934;8.656;2022-07-17T03:14:13;12.50;82.60
24560;DHT22;12727;49.934;8.656;2022-07-17T03:16:38;12.50;84.30
24560;DHT22;12727;49.934;8.656;2022-07-17T03:19:04;12.50;83.80
24560;DHT22;12727;49.934;8.656;2022-07-17T03:21:29;12.70;85.20
24560;DHT22;12727;49.934;8.656;2022-07-17T03:23:57;12.90;84.60
24560;DHT22;12727;49.934;8.656;2022-07-17T03:26:22;12.50;84.40
24560;DHT22;12727;49.934;8.656;2022-07-17T03:28:48;12.30;86.10
24560;DHT22;12727;49.934;8.656;2022-07-17T03:31:13;12.20;86.20
24560;DHT22;12727;49.934;8.656;2022-07-17T03:33:39;12.30;87.00
24560;DHT22;12727;49.934;8.656;2022-07-17T03:36:05;12.50;87.10
24560;DHT22;12727;49.934;8.656;2022-07-17T03:38:31;12.60;86.30
24560;DHT22;12727;49.934;8.656;2022-07-17T03:40:57;12.50;85.90
24560;DHT22;12727;49.934;8.656;2022-07-17T03:43:23;12.20;86.10
24560;DHT22;12727;49.934;8.656;2022-07-17T03:45:48;12.00;86.70
24560;DHT22;12727;49.934;8.656;2022-07-17T03:48:14;12.10;88.50
24560;DHT22;12727;49.934;8.656;2022-07-17T03:50:40;12.00;86.40
24560;DHT22;12727;49.934;8.656;2022-07-17T03:53:06;11.80;86.80
24560;DHT22;12727;49.934;8.656;2022-07-17T03:55:32;11.90;89.50
24560;DHT22;12727;49.934;8.656;2022-07-17T03:57:58;12.20;89.00
24560;DHT22;12727;49.934;8.656;2022-07-17T04:00:24;12.50;87.40
24560;DHT22;12727;49.934;8.656;2022-07-17T04:02:49;12.40;86.70
24560;DHT22;12727;49.934;8.656;2022-07-17T04:05:15;12.50;87.20
24560;DHT22;12727;49.934;8.656;2022-07-17T04:07:41;12.50;87.20
24560;DHT22;12727;49.934;8.656;2022-07-17T04:10:09;12.50;86.40
24560;DHT22;12727;49.934;8.656;2022-07-17T04:12:35;12.50;86.20
24560;DHT22;12727;49.934;8.656;2022-07-17T04:15:01;12.40;86.90
24560;DHT22;12727;49.934;8.656;2022-07-17T04:17:26;12.30;87.10
24560;DHT22;12727;49.934;8.656;2022-07-17T04:19:52;12.30;87.70
24560;DHT22;12727;49.934;8.656;2022-07-17T04:22:19;12.30;87.80
24560;DHT22;12727;49.934;8.656;2022-07-17T04:24:46;12.30;88.80
24560;DHT22;12727;49.934;8.656;2022-07-17T04:27:11;12.60;88.20
24560;DHT22;12727;49.934;8.656;2022-07-17T04:29:37;12.90;88.10
24560;DHT22;12727;49.934;8.656;2022-07-17T04:32:03;13.10;87.30
24560;DHT22;12727;49.934;8.656;2022-07-17T04:34:29;13.40;86.70
24560;DHT22;12727;49.934;8.656;2022-07-17T04:36:55;13.30;86.10
24560;DHT22;12727;49.934;8.656;2022-07-17T04:39:21;13.10;86.60
24560;DHT22;12727;49.934;8.656;2022-07-17T04:41:48;13.00;86.50
24560;DHT22;12727;49.934;8.656;2022-07-17T04:44:14;13.10;87.80
24560;DHT22;12727;49.934;8.656;2022-07-17T04:46:39;13.10;87.70
24560;DHT22;12727;49.934;8.656;2022-07-17T04:49:05;13.40;87.40
24560;DHT22;12727;49.934;8.656;2022-07-17T04:51:30;13.30;86.50
24560;DHT22;12727;49.934;8.656;2022-07-17T04:53:56;13.40;86.80
24560;DHT22;12727;49.934;8.656;2022-07-17T04:56:21;13.30;86.70
24560;DHT22;12727;49.934;8.656;2022-07-17T04:58:47;13.40;86.90
24560;DHT22;12727;49.934;8.656;2022-07-17T05:01:12;13.50;86.70
24560;DHT22;12727;49.934;8.656;2022-07-17T05:03:38;13.50;85.80
24560;DHT22;12727;49.934;8.656;2022-07-17T05:06:04;13.50;85.70
24560;DHT22;12727;49.934;8.656;2022-07-17T05:08:30;13.60;86.00
24560;DHT22;12727;49.934;8.656;2022-07-17T05:10:55;13.70;85.80
24560;DHT22;12727;49.934;8.656;2022-07-17T05:13:21;13.80;85.40
24560;DHT22;12727;49.934;8.656;2022-07-17T05:15:46;13.90;84.90
24560;DHT22;12727;49.934;8.656;2022-07-17T05:18:12;14.10;84.20
24560;DHT22;12727;49.934;8.656;2022-07-17T05:20:39;14.30;83.10
24560;DHT22;12727;49.934;8.656;2022-07-17T05:23:05;14.30;82.50
24560;DHT22;12727;49.934;8.656;2022-07-17T05:25:31;14.40;82.30
24560;DHT22;12727;49.934;8.656;2022-07-17T05:27:56;14.60;82.20
24560;DHT22;12727;49.934;8.656;2022-07-17T05:30:22;14.70;81.40
24560;DHT22;12727;49.934;8.656;2022-07-17T05:32:48;14.70;81.40
24560;DHT22;12727;49.934;8.656;2022-07-17T05:35:13;14.80;82.10
24560;DHT22;12727;49.934;8.656;2022-07-17T05:37:39;14.90;82.40
24560;DHT22;12727;49.934;8.656;2022-07-17T05:40:05;15.00;81.20
24560;DHT22;12727;49.934;8.656;2022-07-17T05:42:31;15.00;80.70
24560;DHT22;12727;49.934;8.656;2022-07-17T05:44:56;15.10;80.30
24560;DHT22;12727;49.934;8.656;2022-07-17T05:47:22;15.20;79.60
24560;DHT22;12727;49.934;8.656;2022-07-17T05:49:47;15.40;79.50
24560;DHT22;12727;49.934;8.656;2022-07-17T05:52:14;15.60;78.70
24560;DHT22;12727;49.934;8.656;2022-07-17T05:54:40;15.80;77.80
24560;DHT22;12727;49.934;8.656;2022-07-17T05:57:05;16.20;76.90
24560;DHT22;12727;49.934;8.656;2022-07-17T05:59:31;16.40;75.70
24560;DHT22;12727;49.934;8.656;2022-07-17T06:01:57;16.60;74.90
24560;DHT22;12727;49.934;8.656;2022-07-17T06:04:22;16.90;74.10
24560;DHT22;12727;49.934;8.656;2022-07-17T06:06:48;17.20;72.80
24560;DHT22;12727;49.934;8.656;2022-07-17T06:09:13;17.40;72.50
24560;DHT22;12727;49.934;8.656;2022-07-17T06:11:39;17.60;71.00
24560;DHT22;12727;49.934;8.656;2022-07-17T06:14:04;17.80;70.80
24560;DHT22;12727;49.934;8.656;2022-07-17T06:16:30;18.00;70.00
24560;DHT22;12727;49.934;8.656;2022-07-17T06:18:56;18.40;69.30
24560;DHT22;12727;49.934;8.656;2022-07-17T06:21:21;18.70;68.00
24560;DHT22;12727;49.934;8.656;2022-07-17T06:23:47;18.90;67.40
24560;DHT22;12727;49.934;8.656;2022-07-17T06:26:16;19.10;66.80
24560;DHT22;12727;49.934;8.656;2022-07-17T06:28:42;19.20;65.40
24560;DHT22;12727;49.934;8.656;2022-07-17T06:31:07;19.40;65.10
24560;DHT22;12727;49.934;8.656;2022-07-17T06:33:33;19.60;64.70
24560;DHT22;12727;49.934;8.656;2022-07-17T06:35:58;19.80;63.10
24560;DHT22;12727;49.934;8.656;2022-07-17T06:38:24;20.00;63.60
24560;DHT22;12727;49.934;8.656;2022-07-17T06:40:49;20.40;61.70
24560;DHT22;12727;49.934;8.656;2022-07-17T06:43:15;20.40;61.10
24560;DHT22;12727;49.934;8.656;2022-07-17T06:45:41;20.80;59.60
24560;DHT22;12727;49.934;8.656;2022-07-17T06:48:06;20.80;59.10
24560;DHT22;12727;49.934;8.656;2022-07-17T06:50:32;20.90;58.90
24560;DHT22;12727;49.934;8.656;2022-07-17T06:52:58;20.70;58.60
24560;DHT22;12727;49.934;8.656;2022-07-17T06:55:23;20.80;58.40
24560;DHT22;12727;49.934;8.656;2022-07-17T06:57:49;21.10;58.00
24560;DHT22;12727;49.934;8.656;2022-07-17T07:00:15;21.50;57.20
24560;DHT22;12727;49.934;8.656;2022-07-17T07:02:43;21.60;56.50
24560;DHT22;12727;49.934;8.656;2022-07-17T07:05:09;21.60;56.30
24560;DHT22;12727;49.934;8.656;2022-07-17T07:07:35;21.80;55.50
24560;DHT22;12727;49.934;8.656;2022-07-17T07:10:00;22.20;55.20
24560;DHT22;12727;49.934;8.656;2022-07-17T07:12:26;22.40;54.70
24560;DHT22;12727;49.934;8.656;2022-07-17T07:14:51;22.50;53.80
24560;DHT22;12727;49.934;8.656;2022-07-17T07:17:17;22.60;53.90
24560;DHT22;12727;49.934;8.656;2022-07-17T07:19:43;23.00;53.70
24560;DHT22;12727;49.934;8.656;2022-07-17T07:22:08;23.40;52.20
24560;DHT22;12727;49.934;8.656;2022-07-17T07:24:34;23.40;52.00
24560;DHT22;12727;49.934;8.656;2022-07-17T07:27:00;23.60;51.90
24560;DHT22;12727;49.934;8.656;2022-07-17T07:29:25;23.60;51.60
24560;DHT22;12727;49.934;8.656;2022-07-17T07:31:51;23.50;51.50
24560;DHT22;12727;49.934;8.656;2022-07-17T07:34:17;23.40;51.70
24560;DHT22;12727;49.934;8.656;2022-07-17T07:36:42;23.50;51.70
24560;DHT22;12727;49.934;8.656;2022-07-17T07:39:08;23.90;50.90
24560;DHT22;12727;49.934;8.656;2022-07-17T07:41:33;24.10;50.00
24560;DHT22;12727;49.934;8.656;2022-07-17T07:43:59;23.80;49.30
24560;DHT22;12727;49.934;8.656;2022-07-17T07:46:24;23.50;50.30
24560;DHT22;12727;49.934;8.656;2022-07-17T07:48:50;24.00;49.80
24560;DHT22;12727;49.934;8.656;2022-07-17T07:51:16;23.80;49.20
24560;DHT22;12727;49.934;8.656;2022-07-17T07:53:41;23.50;49.80
24560;DHT22;12727;49.934;8.656;2022-07-17T07:56:07;23.70;49.90
24560;DHT22;12727;49.934;8.656;2022-07-17T07:58:33;24.30;48.90
24560;DHT22;12727;49.934;8.656;2022-07-17T08:00:58;24.60;48.30
24560;DHT22;12727;49.934;8.656;2022-07-17T08:03:24;24.80;47.90
24560;DHT22;12727;49.934;8.656;2022-07-17T08:05:49;24.70;47.30
24560;DHT22;12727;49.934;8.656;2022-07-17T08:08:15;24.80;47.30
24560;DHT22;12727;49.934;8.656;2022-07-17T08:10:40;25.00;47.70
24560;DHT22;12727;49.934;8.656;2022-07-17T08:13:06;25.10;47.00
24560;DHT22;12727;49.934;8.656;2022-07-17T08:15:32;25.90;46.40
24560;DHT22;12727;49.934;8.656;2022-07-17T08:17:57;26.00;45.50
24560;DHT22;12727;49.934;8.656;2022-07-17T08:20:23;25.90;45.40
24560;DHT22;12727;49.934;8.656;2022-07-17T08:22:49;25.40;45.60
24560;DHT22;12727;49.934;8.656;2022-07-17T08:25:15;25.60;45.70
24560;DHT22;12727;49.934;8.656;2022-07-17T08:27:41;25.70;44.80
24560;DHT22;12727;49.934;8.656;2022-07-17T08:30:09;25.80;44.80
24560;DHT22;12727;49.934;8.656;2022-07-17T08:32:35;26.30;44.60
24560;DHT22;12727;49.934;8.656;2022-07-17T08:35:01;26.40;43.90
24560;DHT22;12727;49.934;8.656;2022-07-17T08:37:27;26.20;43.60
24560;DHT22;12727;49.934;8.656;2022-07-17T08:39:54;26.20;43.70
24560;DHT22;12727;49.934;8.656;2022-07-17T08:42:20;26.60;43.40
24560;DHT22;12727;49.934;8.656;2022-07-17T08:44:46;27.00;42.40
24560;DHT22;12727;49.934;8.656;2022-07-17T08:47:13;26.80;41.80
24560;DHT22;12727;49.934;8.656;2022-07-17T08:49:43;26.80;42.20
24560;DHT22;12727;49.934;8.656;2022-07-17T08:52:13;26.70;41.60
24560;DHT22;12727;49.934;8.656;2022-07-17T08:54:39;26.70;42.10
24560;DHT22;12727;49.934;8.656;2022-07-17T08:57:05;27.00;41.40
24560;DHT22;12727;49.934;8.656;2022-07-17T08:59:31;27.30;41.20
24560;DHT22;12727;49.934;8.656;2022-07-17T09:01:58;27.60;40.70
24560;DHT22;12727;49.934;8.656;2022-07-17T09:04:24;27.60;39.70
24560;DHT22;12727;49.934;8.656;2022-07-17T09:07:04;28.00;39.70
24560;DHT22;12727;49.934;8.656;2022-07-17T09:09:31;29.10;39.30
24560;DHT22;12727;49.934;8.656;2022-07-17T09:11:59;29.60;38.30
24560;DHT22;12727;49.934;8.656;2022-07-17T09:14:37;30.00;37.60
24560;DHT22;12727;49.934;8.656;2022-07-17T09:17:04;30.30;36.40
24560;DHT22;12727;49.934;8.656;2022-07-17T09:27:13;28.60;38.00
24560;DHT22;12727;49.934;8.656;2022-07-17T09:30:00;28.30;37.80
24560;DHT22;12727;49.934;8.656;2022-07-17T09:32:44;28.50;37.50
24560;DHT22;12727;49.934;8.656;2022-07-17T09:35:11;29.30;36.90
24560;DHT22;12727;49.934;8.656;2022-07-17T09:37:37;29.50;36.80
24560;DHT22;12727;49.934;8.656;2022-07-17T09:40:11;29.80;36.20
24560;DHT22;12727;49.934;8.656;2022-07-17T09:42:57;30.20;36.00
24560;DHT22;12727;49.934;8.656;2022-07-17T09:45:23;30.80;35.70
24560;DHT22;12727;49.934;8.656;2022-07-17T09:47:48;30.90;34.60
24560;DHT22;12727;49.934;8.656;2022-07-17T09:50:16;29.80;35.30
24560;DHT22;12727;49.934;8.656;2022-07-17T09:52:43;29.50;35.90
24560;DHT22;12727;49.934;8.656;2022-07-17T09:55:09;29.70;35.50
24560;DHT22;12727;49.934;8.656;2022-07-17T09:57:35;29.80;35.10
24560;DHT22;12727;49.934;8.656;2022-07-17T10:00:07;29.80;35.00
24560;DHT22;12727;49.934;8.656;2022-07-17T10:02:40;29.60;35.10
24560;DHT22;12727;49.934;8.656;2022-07-17T10:05:10;29.40;35.90
24560;DHT22;12727;49.934;8.656;2022-07-17T10:07:45;29.80;35.00
24560;DHT22;12727;49.934;8.656;2022-07-17T10:10:13;29.80;34.10
24560;DHT22;12727;49.934;8.656;2022-07-17T10:12:41;30.00;34.20
24560;DHT22;12727;49.934;8.656;2022-07-17T10:15:08;30.20;33.50
24560;DHT22;12727;49.934;8.656;2022-07-17T10:17:34;30.30;33.40
24560;DHT22;12727;49.934;8.656;2022-07-17T10:20:00;30.60;33.20
24560;DHT22;12727;49.934;8.656;2022-07-17T10:22:26;30.60;33.00
24560;DHT22;12727;49.934;8.656;2022-07-17T10:24:54;30.60;33.30
24560;DHT22;12727;49.934;8.656;2022-07-17T10:27:24;30.20;33.40
24560;DHT22;12727;49.934;8.656;2022-07-17T10:30:03;30.60;33.20
24560;DHT22;12727;49.934;8.656;2022-07-17T10:32:30;30.90;32.50
24560;DHT22;12727;49.934;8.656;2022-07-17T10:35:11;30.30;32.70
24560;DHT22;12727;49.934;8.656;2022-07-17T10:42:47;30.80;32.70
24560;DHT22;12727;49.934;8.656;2022-07-17T10:47:53;30.40;32.30
24560;DHT22;12727;49.934;8.656;2022-07-17T10:50:31;29.80;32.50
24560;DHT22;12727;49.934;8.656;2022-07-17T10:55:44;30.70;31.60
24560;DHT22;12727;49.934;8.656;2022-07-17T11:00:40;30.00;32.80
24560;DHT22;12727;49.934;8.656;2022-07-17T11:03:12;30.40;32.80
24560;DHT22;12727;49.934;8.656;2022-07-17T11:05:39;30.90;32.40
24560;DHT22;12727;49.934;8.656;2022-07-17T11:08:04;31.30;31.90
24560;DHT22;12727;49.934;8.656;2022-07-17T11:10:35;31.40;30.90
24560;DHT22;12727;49.934;8.656;2022-07-17T11:13:09;30.50;31.30
24560;DHT22;12727;49.934;8.656;2022-07-17T11:15:42;30.40;31.30
24560;DHT22;12727;49.934;8.656;2022-07-17T11:20:56;30.20;30.80
24560;DHT22;12727;49.934;8.656;2022-07-17T11:23:24;29.90;30.80
24560;DHT22;12727;49.934;8.656;2022-07-17T11:26:02;30.30;30.40
24560;DHT22;12727;49.934;8.656;2022-07-17T11:28:36;30.20;30.00
24560;DHT22;12727;49.934;8.656;2022-07-17T11:31:04;30.10;30.40
24560;DHT22;12727;49.934;8.656;2022-07-17T11:33:30;29.90;30.20
24560;DHT22;12727;49.934;8.656;2022-07-17T11:35:55;29.20;30.90
24560;DHT22;12727;49.934;8.656;2022-07-17T11:38:28;29.00;31.20
24560;DHT22;12727;49.934;8.656;2022-07-17T11:40:54;28.80;31.70
24560;DHT22;12727;49.934;8.656;2022-07-17T11:43:20;28.30;31.20
24560;DHT22;12727;49.934;8.656;2022-07-17T11:45:47;28.10;32.20
24560;DHT22;12727;49.934;8.656;2022-07-17T11:48:13;27.90;31.50
24560;DHT22;12727;49.934;8.656;2022-07-17T11:50:38;27.60;31.40
24560;DHT22;12727;49.934;8.656;2022-07-17T11:53:05;27.30;31.30
24560;DHT22;12727;49.934;8.656;2022-07-17T11:55:35;27.60;31.60
24560;DHT22;12727;49.934;8.656;2022-07-17T11:58:02;27.70;31.40
24560;DHT22;12727;49.934;8.656;2022-07-17T12:00:28;27.40;30.90
24560;DHT22;12727;49.934;8.656;2022-07-17T12:03:05;27.20;32.00
24560;DHT22;12727;49.934;8.656;2022-07-17T12:05:33;27.30;32.20
24560;DHT22;12727;49.934;8.656;2022-07-17T12:07:59;27.30;32.30
24560;DHT22;12727;49.934;8.656;2022-07-17T12:10:27;27.50;32.40
24560;DHT22;12727;49.934;8.656;2022-07-17T12:15:39;27.40;32.80
24560;DHT22;12727;49.934;8.656;2022-07-17T12:18:18;27.40;33.40
24560;DHT22;12727;49.934;8.656;2022-07-17T12:20:46;27.80;32.90
24560;DHT22;12727;49.934;8.656;2022-07-17T12:23:37;27.60;33.10
24560;DHT22;12727;49.934;8.656;2022-07-17T12:26:10;27.60;33.00
24560;DHT22;12727;49.934;8.656;2022-07-17T12:28:36;27.60;33.50
24560;DHT22;12727;49.934;8.656;2022-07-17T12:31:02;27.50;32.60
24560;DHT22;12727;49.934;8.656;2022-07-17T12:33:28;27.60;33.30
24560;DHT22;12727;49.934;8.656;2022-07-17T12:35:54;27.60;32.50
24560;DHT22;12727;49.934;8.656;2022-07-17T12:38:20;27.60;33.20
24560;DHT22;12727;49.934;8.656;2022-07-17T12:40:46;27.80;32.10
24560;DHT22;12727;49.934;8.656;2022-07-17T12:43:11;27.80;30.50
24560;DHT22;12727;49.934;8.656;2022-07-17T12:45:37;27.60;30.20
24560;DHT22;12727;49.934;8.656;2022-07-17T12:48:03;27.60;30.00
24560;DHT22;12727;49.934;8.656;2022-07-17T12:50:28;27.60;29.70
24560;DHT22;12727;49.934;8.656;2022-07-17T12:52:54;27.50;29.00
24560;DHT22;12727;49.934;8.656;2022-07-17T12:55:20;27.20;28.10
24560;DHT22;12727;49.934;8.656;2022-07-17T12:57:45;27.10;27.90
24560;DHT22;12727;49.934;8.656;2022-07-17T13:00:12;27.20;27.80
24560;DHT22;12727;49.934;8.656;2022-07-17T13:02:37;27.30;27.00
24560;DHT22;12727;49.934;8.656;2022-07-17T13:05:03;27.20;26.60
24560;DHT22;12727;49.934;8.656;2022-07-17T13:07:29;27.10;26.50
24560;DHT22;12727;49.934;8.656;2022-07-17T13:09:55;27.30;26.70
24560;DHT22;12727;49.934;8.656;2022-07-17T13:12:21;27.10;26.10
24560;DHT22;12727;49.934;8.656;2022-07-17T13:14:47;26.90;26.30
24560;DHT22;12727;49.934;8.656;2022-07-17T13:17:12;27.10;26.70
24560;DHT22;12727;49.934;8.656;2022-07-17T13:19:38;27.40;27.70
24560;DHT22;12727;49.934;8.656;2022-07-17T13:22:03;27.30;28.00
24560;DHT22;12727;49.934;8.656;2022-07-17T13:24:32;27.20;27.40
24560;DHT22;12727;49.934;8.656;2022-07-17T13:26:58;27.20;27.10
24560;DHT22;12727;49.934;8.656;2022-07-17T13:29:24;27.50;27.20
24560;DHT22;12727;49.934;8.656;2022-07-17T13:31:52;27.70;27.10
24560;DHT22;12727;49.934;8.656;2022-07-17T13:34:18;27.80;25.90
24560;DHT22;12727;49.934;8.656;2022-07-17T13:36:44;27.80;25.80
24560;DHT22;12727;49.934;8.656;2022-07-17T13:39:10;27.90;26.40
24560;DHT22;12727;49.934;8.656;2022-07-17T13:41:37;27.90;26.10
24560;DHT22;12727;49.934;8.656;2022-07-17T13:44:02;27.80;25.90
24560;DHT22;12727;49.934;8.656;2022-07-17T13:46:28;27.80;25.80
24560;DHT22;12727;49.934;8.656;2022-07-17T13:48:53;28.00;26.20
24560;DHT22;12727;49.934;8.656;2022-07-17T13:51:19;27.90;26.90
24560;DHT22;12727;49.934;8.656;2022-07-17T13:53:45;27.70;26.60
24560;DHT22;12727;49.934;8.656;2022-07-17T13:56:10;27.80;26.80
24560;DHT22;12727;49.934;8.656;2022-07-17T13:58:36;27.80;27.00
24560;DHT22;12727;49.934;8.656;2022-07-17T14:01:02;27.80;26.80
24560;DHT22;12727;49.934;8.656;2022-07-17T14:03:28;27.60;26.40
24560;DHT22;12727;49.934;8.656;2022-07-17T14:05:54;27.40;26.30
24560;DHT22;12727;49.934;8.656;2022-07-17T14:08:20;27.50;26.70
24560;DHT22;12727;49.934;8.656;2022-07-17T14:10:45;27.60;27.00
24560;DHT22;12727;49.934;8.656;2022-07-17T14:13:11;27.60;26.40
24560;DHT22;12727;49.934;8.656;2022-07-17T14:15:37;27.60;25.20
24560;DHT22;12727;49.934;8.656;2022-07-17T14:18:02;27.60;26.00
24560;DHT22;12727;49.934;8.656;2022-07-17T14:20:28;27.90;26.20
24560;DHT22;12727;49.934;8.656;2022-07-17T14:22:54;27.90;25.80
24560;DHT22;12727;49.934;8.656;2022-07-17T14:25:19;27.80;25.90
24560;DHT22;12727;49.934;8.656;2022-07-17T14:27:45;27.70;25.70
24560;DHT22;12727;49.934;8.656;2022-07-17T14:30:11;27.70;26.20
24560;DHT22;12727;49.934;8.656;2022-07-17T14:32:37;27.90;26.30
24560;DHT22;12727;49.934;8.656;2022-07-17T14:35:03;27.90;26.40
24560;DHT22;12727;49.934;8.656;2022-07-17T14:37:29;27.80;25.80
24560;DHT22;12727;49.934;8.656;2022-07-17T14:39:55;27.70;26.00
24560;DHT22;12727;49.934;8.656;2022-07-17T14:42:20;27.60;26.00
24560;DHT22;12727;49.934;8.656;2022-07-17T14:44:46;27.60;26.00
24560;DHT22;12727;49.934;8.656;2022-07-17T14:47:12;27.60;25.80
24560;DHT22;12727;49.934;8.656;2022-07-17T14:49:37;27.50;25.40
24560;DHT22;12727;49.934;8.656;2022-07-17T14:52:03;27.30;25.70
24560;DHT22;12727;49.934;8.656;2022-07-17T14:54:29;27.40;25.90
24560;DHT22;12727;49.934;8.656;2022-07-17T14:56:56;27.60;24.80
24560;DHT22;12727;49.934;8.656;2022-07-17T14:59:23;27.70;24.40
24560;DHT22;12727;49.934;8.656;2022-07-17T15:01:49;27.70;24.10
24560;DHT22;12727;49.934;8.656;2022-07-17T15:04:15;27.50;24.80
24560;DHT22;12727;49.934;8.656;2022-07-17T15:06:40;27.50;24.60
24560;DHT22;12727;49.934;8.656;2022-07-17T15:09:10;27.70;24.80
24560;DHT22;12727;49.934;8.656;2022-07-17T15:11:35;27.90;24.80
24560;DHT22;12727;49.934;8.656;2022-07-17T15:14:01;27.90;25.60
24560;DHT22;12727;49.934;8.656;2022-07-17T15:16:27;28.00;25.60
24560;DHT22;12727;49.934;8.656;2022-07-17T15:18:52;28.10;25.40
24560;DHT22;12727;49.934;8.656;2022-07-17T15:21:18;28.00;24.80
24560;DHT22;12727;49.934;8.656;2022-07-17T15:23:44;27.80;25.00
24560;DHT22;12727;49.934;8.656;2022-07-17T15:26:09;27.60;24.90
24560;DHT22;12727;49.934;8.656;2022-07-17T15:28:35;27.60;25.30
24560;DHT22;12727;49.934;8.656;2022-07-17T15:31:01;27.70;25.40
24560;DHT22;12727;49.934;8.656;2022-07-17T15:33:26;27.80;25.60
24560;DHT22;12727;49.934;8.656;2022-07-17T15:35:52;27.90;26.00
24560;DHT22;12727;49.934;8.656;2022-07-17T15:38:17;27.80;25.50
24560;DHT22;12727;49.934;8.656;2022-07-17T15:40:43;27.80;26.10
24560;DHT22;12727;49.934;8.656;2022-07-17T15:43:08;27.70;26.10
24560;DHT22;12727;49.934;8.656;2022-07-17T15:45:34;27.70;26.40
24560;DHT22;12727;49.934;8.656;2022-07-17T15:48:00;27.70;26.40
24560;DHT22;12727;49.934;8.656;2022-07-17T15:50:25;27.70;26.60
24560;DHT22;12727;49.934;8.656;2022-07-17T15:52:51;27.80;26.60